Time;durP1;ratioP1;P1;durP2;ratioP2;P2;SDS_P1;SDS_P2;PMS_P1;PMS_P2;Temp;Humidity;BMP_temperature;BMP_pressure;BME280_temperature;BME280_humidity;BME280_pressure;Samples;Min_cycle;Max_cycle;Signal;HPM_P1;HPM_P2
2023/05/16 00:02:08;;;;;;;3.90;2.80;;;13.00;99.90;;;;;;5072921;28;20452;-80
2023/05/16 00:04:36;;;;;;;4.13;2.60;;;13.00;99.90;;;;;;5073308;28;20492;-81
2023/05/16 00:07:02;;;;;;;4.17;2.70;;;12.90;99.90;;;;;;5073439;28;20443;-80
2023/05/16 00:09:30;;;;;;;4.70;3.03;;;12.90;99.90;;;;;;5073417;28;20445;-80
2023/05/16 00:11:57;;;;;;;4.70;2.77;;;12.90;99.90;;;;;;5073355;28;20449;-80
2023/05/16 00:14:25;;;;;;;4.33;3.20;;;12.90;99.90;;;;;;5072971;28;21035;-80
2023/05/16 00:16:52;;;;;;;4.33;2.60;;;12.90;99.90;;;;;;5073295;28;20453;-80
2023/05/16 00:19:20;;;;;;;4.50;2.70;;;12.90;99.90;;;;;;5072992;28;20938;-80
2023/05/16 00:21:46;;;;;;;4.77;3.27;;;12.90;99.90;;;;;;5073291;28;20499;-80
2023/05/16 00:24:13;;;;;;;6.67;3.03;;;12.90;99.90;;;;;;5072816;28;20997;-80
2023/05/16 00:26:41;;;;;;;2.93;2.00;;;12.80;99.90;;;;;;5073234;28;20450;-80
2023/05/16 00:29:08;;;;;;;8.80;2.93;;;12.80;99.90;;;;;;5073205;28;20457;-80
2023/05/16 00:31:35;;;;;;;7.80;4.10;;;12.80;99.90;;;;;;5073163;28;20476;-80
2023/05/16 00:34:02;;;;;;;4.60;2.60;;;12.80;99.90;;;;;;5073036;28;20470;-80
2023/05/16 00:36:30;;;;;;;5.00;4.00;;;12.80;99.90;;;;;;5073092;28;20481;-80
2023/05/16 00:38:57;;;;;;;8.40;3.70;;;12.70;99.90;;;;;;5072764;28;21036;-80
2023/05/16 00:41:25;;;;;;;5.20;3.10;;;12.80;99.90;;;;;;5073107;28;20441;-80
2023/05/16 00:43:53;;;;;;;6.83;3.33;;;12.70;99.90;;;;;;5072906;28;20488;-80
2023/05/16 00:46:19;;;;;;;6.40;3.03;;;12.70;99.90;;;;;;5073029;28;20450;-80
2023/05/16 00:48:46;;;;;;;4.40;2.80;;;12.70;99.90;;;;;;5072951;28;20452;-80
2023/05/16 00:51:13;;;;;;;4.70;3.30;;;12.60;99.90;;;;;;5072654;28;20467;-80
2023/05/16 00:53:40;;;;;;;9.13;4.53;;;12.60;99.90;;;;;;5072693;28;20473;-80
2023/05/16 00:56:07;;;;;;;6.47;4.17;;;12.60;99.90;;;;;;5072930;28;20450;-80
2023/05/16 00:58:34;;;;;;;3.37;2.83;;;12.50;99.90;;;;;;5072694;28;20434;-80
2023/05/16 01:01:03;;;;;;;6.30;4.30;;;12.50;99.90;;;;;;5072886;28;20449;-80
2023/05/16 01:03:31;;;;;;;13.30;4.20;;;12.50;99.90;;;;;;5075017;28;20487;-80
2023/05/16 01:05:58;;;;;;;9.93;4.83;;;12.60;99.90;;;;;;5076470;28;20481;-80
2023/05/16 01:08:25;;;;;;;7.57;4.47;;;12.50;99.90;;;;;;5076187;28;20975;-80
2023/05/16 01:11:00;;;;;;;10.23;5.23;;;12.50;99.90;;;;;;5076212;28;20964;-80
2023/05/16 01:13:36;;;;;;;8.23;5.30;;;12.50;99.90;;;;;;5076383;28;20465;-80
2023/05/16 01:16:13;;;;;;;11.13;4.17;;;12.50;99.90;;;;;;5076082;28;20921;-80
2023/05/16 01:18:47;;;;;;;9.03;4.17;;;12.40;99.90;;;;;;5076412;28;20461;-80
2023/05/16 01:21:23;;;;;;;8.73;4.20;;;12.40;99.90;;;;;;5076363;28;20441;-80
2023/05/16 01:23:58;;;;;;;10.30;5.50;;;12.40;99.90;;;;;;5076185;28;20497;-80
2023/05/16 01:26:28;;;;;;;8.00;3.73;;;12.40;99.90;;;;;;5076331;28;20425;-80
2023/05/16 01:28:56;;;;;;;13.37;5.00;;;12.40;99.90;;;;;;5076784;28;20437;-80
2023/05/16 01:31:23;;;;;;;9.67;5.37;;;12.40;99.90;;;;;;5076089;28;20449;-81
2023/05/16 01:33:50;;;;;;;10.03;5.20;;;12.40;99.90;;;;;;5076024;28;20813;-80
2023/05/16 01:36:25;;;;;;;8.40;4.37;;;12.40;99.90;;;;;;5075987;28;20475;-81
2023/05/16 01:39:01;;;;;;;15.73;6.53;;;12.40;99.90;;;;;;5076057;28;20461;-80
2023/05/16 01:41:43;;;;;;;13.80;5.83;;;12.40;99.90;;;;;;5075959;28;20445;-80
2023/05/16 01:44:18;;;;;;;9.03;5.10;;;12.40;99.90;;;;;;5075806;28;20493;-80
2023/05/16 01:46:47;;;;;;;13.80;6.30;;;12.40;99.90;;;;;;5075601;28;20903;-80
2023/05/16 01:49:18;;;;;;;10.17;5.20;;;12.40;99.90;;;;;;5075847;28;20481;-80
2023/05/16 01:51:50;;;;;;;13.37;6.13;;;12.30;99.90;;;;;;5075529;28;20927;-80
2023/05/16 01:54:19;;;;;;;15.47;6.37;;;12.30;99.90;;;;;;5075742;28;20827;-80
2023/05/16 01:56:52;;;;;;;10.33;5.20;;;12.30;99.90;;;;;;5075670;28;20460;-80
2023/05/16 01:59:21;;;;;;;10.00;5.17;;;12.20;99.90;;;;;;5075692;28;20422;-80
2023/05/16 02:01:48;;;;;;;12.63;5.77;;;12.20;99.90;;;;;;5075601;28;20484;-80
2023/05/16 02:04:15;;;;;;;12.53;6.10;;;12.20;99.90;;;;;;5074933;28;20830;-80
2023/05/16 02:06:41;;;;;;;12.00;5.63;;;12.10;99.90;;;;;;5075521;28;20453;-80
2023/05/16 02:09:08;;;;;;;14.20;6.10;;;12.10;99.90;;;;;;5075148;28;20991;-80
2023/05/16 02:11:35;;;;;;;12.97;5.20;;;12.10;99.90;;;;;;5075407;28;20445;-80
2023/05/16 02:14:03;;;;;;;14.93;6.40;;;12.00;99.90;;;;;;5074843;28;20462;-81
2023/05/16 02:16:30;;;;;;;15.70;5.87;;;12.00;99.90;;;;;;5074995;28;20827;-81
2023/05/16 02:18:57;;;;;;;13.50;6.57;;;12.00;99.90;;;;;;5075257;28;20476;-80
2023/05/16 02:21:24;;;;;;;10.40;4.47;;;11.90;99.90;;;;;;5075241;28;20837;-80
2023/05/16 02:23:51;;;;;;;17.37;6.90;;;11.80;99.90;;;;;;5075119;28;20465;-80
2023/05/16 02:26:17;;;;;;;11.70;5.37;;;11.80;99.90;;;;;;5075053;28;20481;-80
2023/05/16 02:28:44;;;;;;;15.43;6.63;;;11.80;99.90;;;;;;5075137;28;20450;-80
2023/05/16 02:31:12;;;;;;;18.83;7.23;;;11.70;99.90;;;;;;5074990;28;20507;-80
2023/05/16 02:33:40;;;;;;;11.90;5.07;;;11.70;99.90;;;;;;5074909;28;20462;-80
2023/05/16 02:36:07;;;;;;;11.70;5.23;;;11.70;99.90;;;;;;5074881;28;20445;-80
2023/05/16 02:38:34;;;;;;;17.27;6.07;;;11.70;99.90;;;;;;5074537;28;20839;-80
2023/05/16 02:41:01;;;;;;;13.33;6.50;;;11.70;99.90;;;;;;5074772;28;20448;-80
2023/05/16 02:43:28;;;;;;;10.07;5.30;;;11.70;99.90;;;;;;5074683;28;20470;-80
2023/05/16 02:45:54;;;;;;;12.03;5.00;;;11.70;99.90;;;;;;5074377;28;21027;-80
2023/05/16 02:48:23;;;;;;;15.03;6.17;;;11.70;99.90;;;;;;5074681;28;20461;-80
2023/05/16 02:50:49;;;;;;;18.40;6.00;;;11.70;99.90;;;;;;5074645;28;20453;-80
2023/05/16 02:53:16;;;;;;;17.13;6.63;;;11.70;99.90;;;;;;5074499;28;20462;-80
2023/05/16 02:55:43;;;;;;;11.07;5.80;;;11.70;99.90;;;;;;5075075;28;20941;-80
2023/05/16 02:58:09;;;;;;;12.03;6.50;;;11.70;99.90;;;;;;5074495;28;20450;-81
2023/05/16 03:00:36;;;;;;;21.70;7.70;;;11.60;99.90;;;;;;5074470;28;20616;-80
2023/05/16 03:03:03;;;;;;;13.70;6.10;;;11.70;99.90;;;;;;5073962;28;20508;-80
2023/05/16 03:05:31;;;;;;;10.90;5.00;;;11.60;99.90;;;;;;5073975;28;20880;-80
2023/05/16 03:07:58;;;;;;;18.10;8.30;;;11.70;99.90;;;;;;5073949;28;20442;-80
2023/05/16 03:10:25;;;;;;;17.20;6.80;;;11.70;99.90;;;;;;5074266;28;20445;-80
2023/05/16 03:12:52;;;;;;;17.20;6.23;;;11.70;99.90;;;;;;5073814;28;20472;-80
2023/05/16 03:15:18;;;;;;;17.20;7.70;;;11.70;99.90;;;;;;5074173;28;20875;-80
2023/05/16 03:17:45;;;;;;;21.40;7.50;;;11.70;99.90;;;;;;5074122;28;20446;-80
2023/05/16 03:20:12;;;;;;;18.80;6.97;;;11.70;99.90;;;;;;5073740;28;20953;-80
2023/05/16 03:22:40;;;;;;;26.80;7.03;;;11.60;99.90;;;;;;5073910;28;20453;-80
2023/05/16 03:25:07;;;;;;;12.77;6.40;;;11.60;99.90;;;;;;5072815;28;21030;-80
2023/05/16 03:27:35;;;;;;;16.60;7.20;;;11.60;99.90;;;;;;5073884;28;20450;-80
2023/05/16 03:30:01;;;;;;;20.93;6.90;;;11.70;99.90;;;;;;5073537;28;20933;-80
2023/05/16 03:32:28;;;;;;;12.53;5.50;;;11.60;99.90;;;;;;5073810;28;20457;-80
2023/05/16 03:34:55;;;;;;;15.43;8.17;;;11.60;99.90;;;;;;5073777;28;20441;-80
2023/05/16 03:37:21;;;;;;;14.20;5.90;;;11.70;99.90;;;;;;5073749;28;20825;-80
2023/05/16 03:39:49;;;;;;;15.30;6.50;;;11.70;99.90;;;;;;5073838;28;20446;-80
2023/05/16 03:42:17;;;;;;;14.87;6.17;;;11.70;99.90;;;;;;5073740;28;20442;-80
2023/05/16 03:44:44;;;;;;;20.63;7.63;;;11.70;99.90;;;;;;5073589;28;20469;-80
2023/05/16 03:47:10;;;;;;;19.90;7.20;;;11.70;99.90;;;;;;5073762;28;20813;-80
2023/05/16 03:49:37;;;;;;;18.60;5.80;;;11.70;99.90;;;;;;5073624;28;20472;-80
2023/05/16 03:52:04;;;;;;;23.50;7.97;;;11.70;99.90;;;;;;5073593;28;20453;-80
2023/05/16 03:54:31;;;;;;;16.23;8.97;;;11.70;99.90;;;;;;5073510;28;20830;-80
2023/05/16 03:56:59;;;;;;;21.03;7.97;;;11.70;99.90;;;;;;5073500;28;20449;-80
2023/05/16 03:59:26;;;;;;;17.30;5.93;;;11.70;99.90;;;;;;5073373;28;20535;-80
2023/05/16 04:01:53;;;;;;;20.27;6.17;;;11.70;99.90;;;;;;5072998;28;20965;-80
2023/05/16 04:04:19;;;;;;;18.07;8.00;;;11.80;99.90;;;;;;5073119;28;20972;-80
2023/05/16 04:06:46;;;;;;;21.40;6.83;;;11.80;99.90;;;;;;5073297;28;20492;-80
2023/05/16 04:09:13;;;;;;;13.93;6.10;;;11.70;99.90;;;;;;5073054;28;20966;-79
2023/05/16 04:11:39;;;;;;;22.03;7.40;;;11.80;99.90;;;;;;5073284;28;20454;-80
2023/05/16 04:14:08;;;;;;;25.80;7.60;;;11.80;99.90;;;;;;5073264;28;20468;-80
2023/05/16 04:16:35;;;;;;;18.43;6.17;;;11.90;99.90;;;;;;5073086;28;20842;-79
2023/05/16 04:19:02;;;;;;;19.03;7.57;;;11.90;99.90;;;;;;5073333;28;20445;-79
2023/05/16 04:21:29;;;;;;;17.83;6.70;;;11.90;99.90;;;;;;5073317;28;20461;-79
2023/05/16 04:23:56;;;;;;;16.43;7.30;;;11.90;99.90;;;;;;5073185;28;20473;-79
2023/05/16 04:26:23;;;;;;;18.00;7.40;;;11.90;99.90;;;;;;5073201;28;20481;-79
2023/05/16 04:28:50;;;;;;;12.50;8.23;;;11.90;99.90;;;;;;5073160;28;20457;-79
2023/05/16 04:31:18;;;;;;;17.60;8.33;;;11.90;99.90;;;;;;5073128;28;20454;-80
2023/05/16 04:33:45;;;;;;;23.50;8.00;;;11.90;99.90;;;;;;5073130;28;20478;-79
2023/05/16 04:36:12;;;;;;;14.00;7.07;;;12.00;99.90;;;;;;5073767;28;20496;-80
2023/05/16 04:38:39;;;;;;;22.47;8.60;;;11.90;99.90;;;;;;5077083;28;20449;-80
2023/05/16 04:41:06;;;;;;;21.80;8.00;;;11.90;99.90;;;;;;5076884;28;20453;-80
2023/05/16 04:43:32;;;;;;;18.30;6.20;;;11.90;99.90;;;;;;5076706;28;20992;-80
2023/05/16 04:45:59;;;;;;;17.90;7.17;;;12.00;99.90;;;;;;5076957;28;20488;-80
2023/05/16 04:48:27;;;;;;;15.57;5.37;;;12.00;99.90;;;;;;5076702;28;20959;-80
2023/05/16 04:50:54;;;;;;;13.87;6.60;;;12.00;99.90;;;;;;5076938;28;20453;-80
2023/05/16 04:53:21;;;;;;;16.80;7.03;;;12.00;99.90;;;;;;5076506;28;20972;-80
2023/05/16 04:55:48;;;;;;;22.40;7.20;;;12.00;99.90;;;;;;5076532;28;20446;-80
2023/05/16 04:58:15;;;;;;;16.40;6.93;;;12.00;99.90;;;;;;5076481;28;20453;-80
2023/05/16 05:00:42;;;;;;;15.37;5.73;;;12.00;99.90;;;;;;5076423;28;20434;-79
2023/05/16 05:03:08;;;;;;;15.97;6.00;;;12.00;99.90;;;;;;5076253;28;20545;-80
2023/05/16 05:05:36;;;;;;;19.77;9.03;;;12.00;99.90;;;;;;5076630;28;20488;-80
2023/05/16 05:08:03;;;;;;;31.87;9.90;;;12.10;99.90;;;;;;5076619;28;20445;-80
2023/05/16 05:10:30;;;;;;;17.03;7.07;;;12.00;99.90;;;;;;5076607;28;20445;-80
2023/05/16 05:12:57;;;;;;;21.87;8.23;;;12.10;99.90;;;;;;5076068;28;20918;-80
2023/05/16 05:15:24;;;;;;;19.63;8.43;;;12.00;99.90;;;;;;5076745;28;20536;-80
2023/05/16 05:17:51;;;;;;;17.73;6.93;;;12.00;99.90;;;;;;5076226;28;20434;-80
2023/05/16 05:20:18;;;;;;;22.20;8.80;;;12.00;99.90;;;;;;5076344;28;20449;-80
2023/05/16 05:22:46;;;;;;;19.27;7.80;;;12.00;99.90;;;;;;5076367;28;20476;-80
2023/05/16 05:25:14;;;;;;;17.93;8.97;;;12.00;99.90;;;;;;5076187;28;20456;-80
2023/05/16 05:27:41;;;;;;;17.33;6.60;;;12.00;99.90;;;;;;5076185;28;20442;-80
2023/05/16 05:30:08;;;;;;;13.57;5.97;;;12.00;99.90;;;;;;5077274;28;20452;-79
2023/05/16 05:32:35;;;;;;;21.77;7.00;;;12.00;99.90;;;;;;5076113;28;20453;-80
2023/05/16 05:35:02;;;;;;;18.97;8.10;;;12.10;99.90;;;;;;5076119;28;20449;-80
2023/05/16 05:37:30;;;;;;;20.30;8.07;;;12.10;99.90;;;;;;5076061;28;20454;-80
2023/05/16 05:39:58;;;;;;;13.57;5.60;;;12.10;99.90;;;;;;5075976;28;20524;-79
2023/05/16 05:42:25;;;;;;;15.40;5.90;;;12.20;99.90;;;;;;5075943;28;20453;-80
2023/05/16 05:44:51;;;;;;;21.97;7.80;;;12.10;99.90;;;;;;5075681;28;20799;-80
2023/05/16 05:47:18;;;;;;;16.67;5.90;;;12.20;99.90;;;;;;5075725;28;20481;-80
2023/05/16 05:49:45;;;;;;;17.70;7.50;;;12.20;99.90;;;;;;5074932;28;20458;-80
2023/05/16 05:52:12;;;;;;;14.23;5.73;;;12.10;99.90;;;;;;5075615;28;20941;-80
2023/05/16 05:54:38;;;;;;;17.90;7.70;;;12.10;99.90;;;;;;5075735;28;20450;-80
2023/05/16 05:57:06;;;;;;;18.93;7.53;;;12.10;99.90;;;;;;5075723;28;20445;-80
2023/05/16 05:59:33;;;;;;;19.63;8.20;;;12.10;99.90;;;;;;5075337;28;20960;-80
2023/05/16 06:02:00;;;;;;;16.90;8.10;;;12.10;99.90;;;;;;5075130;28;20441;-80
2023/05/16 06:04:27;;;;;;;16.93;6.57;;;12.10;99.90;;;;;;5075595;28;20474;-80
2023/05/16 06:06:53;;;;;;;15.47;6.20;;;12.20;99.90;;;;;;5075214;28;20489;-80
2023/05/16 06:09:21;;;;;;;17.43;7.17;;;12.20;99.90;;;;;;5075506;28;20441;-80
2023/05/16 06:11:48;;;;;;;20.27;6.77;;;12.20;99.90;;;;;;5075463;28;20449;-80
2023/05/16 06:14:16;;;;;;;14.20;7.80;;;12.10;99.90;;;;;;5075362;28;20484;-79
2023/05/16 06:16:43;;;;;;;12.90;5.90;;;12.20;99.90;;;;;;5075400;28;20454;-81
2023/05/16 06:19:11;;;;;;;18.37;6.47;;;12.20;99.90;;;;;;5075267;28;20496;-80
2023/05/16 06:21:37;;;;;;;23.00;7.37;;;12.20;99.90;;;;;;5075339;28;20468;-81
2023/05/16 06:24:05;;;;;;;16.33;6.60;;;12.20;99.90;;;;;;5074843;28;20465;-81
2023/05/16 06:26:33;;;;;;;19.93;6.40;;;12.20;99.90;;;;;;5075110;28;20535;-80
2023/05/16 06:29:00;;;;;;;13.50;6.37;;;12.20;99.90;;;;;;5074797;28;20941;-80
2023/05/16 06:31:28;;;;;;;11.70;5.17;;;12.20;99.90;;;;;;5075068;28;20453;-81
2023/05/16 06:33:55;;;;;;;14.47;8.07;;;12.30;99.90;;;;;;5074945;28;20468;-81
2023/05/16 06:36:22;;;;;;;14.67;4.90;;;12.30;99.90;;;;;;5074911;28;20457;-80
2023/05/16 06:38:49;;;;;;;11.30;6.03;;;12.40;99.90;;;;;;5074996;28;20452;-80
2023/05/16 06:41:16;;;;;;;12.60;5.43;;;12.50;99.90;;;;;;5074594;28;20481;-81
2023/05/16 06:43:43;;;;;;;12.10;5.33;;;12.50;99.90;;;;;;5074845;28;20469;-81
2023/05/16 06:46:10;;;;;;;12.63;5.83;;;12.50;99.90;;;;;;5074455;28;20521;-80
2023/05/16 06:48:38;;;;;;;15.73;6.10;;;12.60;99.90;;;;;;5074695;28;20445;-80
2023/05/16 06:51:05;;;;;;;14.40;7.33;;;12.60;99.90;;;;;;5074648;28;20454;-81
2023/05/16 06:53:32;;;;;;;7.50;5.20;;;12.60;99.90;;;;;;5074654;28;20464;-81
2023/05/16 06:55:58;;;;;;;17.47;6.47;;;12.50;99.90;;;;;;5074605;28;20462;-80
2023/05/16 06:58:25;;;;;;;15.00;6.00;;;12.50;99.90;;;;;;5074534;28;20446;-80
2023/05/16 07:00:52;;;;;;;13.83;5.60;;;12.40;99.90;;;;;;5074451;28;20499;-80
2023/05/16 07:03:18;;;;;;;14.53;5.77;;;12.40;99.90;;;;;;5074040;28;20477;-80
2023/05/16 07:05:46;;;;;;;17.70;7.20;;;12.40;99.90;;;;;;5073995;28;20960;-80
2023/05/16 07:08:14;;;;;;;11.27;5.00;;;12.40;99.90;;;;;;5074249;28;20457;-80
2023/05/16 07:10:40;;;;;;;11.03;3.90;;;12.40;99.90;;;;;;5073953;28;20457;-79
2023/05/16 07:13:08;;;;;;;11.60;5.93;;;12.40;99.90;;;;;;5074156;28;20474;-80
2023/05/16 07:15:35;;;;;;;11.83;5.63;;;12.30;99.90;;;;;;5074193;28;20445;-81
2023/05/16 07:18:01;;;;;;;13.90;6.07;;;12.30;99.90;;;;;;5073843;28;20945;-81
2023/05/16 07:20:28;;;;;;;9.80;4.63;;;12.30;99.90;;;;;;5074112;28;20460;-81
2023/05/16 07:22:57;;;;;;;9.80;4.77;;;12.30;99.90;;;;;;5073660;28;20470;-81
2023/05/16 07:25:24;;;;;;;12.43;4.50;;;12.20;99.90;;;;;;5074002;28;20492;-81
2023/05/16 07:27:50;;;;;;;11.13;5.43;;;12.20;99.90;;;;;;5073574;28;21030;-81
2023/05/16 07:30:17;;;;;;;8.87;4.83;;;12.20;99.90;;;;;;5073654;28;20441;-81
2023/05/16 07:32:44;;;;;;;10.80;5.17;;;12.20;99.90;;;;;;5073814;28;20446;-80
2023/05/16 07:35:12;;;;;;;11.83;5.03;;;12.20;99.90;;;;;;5073484;28;20442;-80
2023/05/16 07:37:40;;;;;;;13.17;5.97;;;12.20;99.90;;;;;;5073799;28;20441;-81
2023/05/16 07:40:10;;;;;;;12.80;4.90;;;12.20;99.90;;;;;;5073995;28;20491;-81
2023/05/16 07:42:36;;;;;;;11.10;4.90;;;12.20;99.90;;;;;;5073665;28;20454;-81
2023/05/16 07:45:05;;;;;;;7.53;3.40;;;12.30;99.90;;;;;;5073644;28;20453;-80
2023/05/16 07:47:32;;;;;;;7.70;3.80;;;12.30;99.90;;;;;;5072940;28;20473;-81
2023/05/16 07:49:59;;;;;;;6.63;3.53;;;12.30;99.90;;;;;;5073268;28;20802;-81
2023/05/16 07:52:26;;;;;;;6.23;3.47;;;12.40;99.90;;;;;;5073191;28;20955;-81
2023/05/16 07:54:53;;;;;;;4.83;2.60;;;12.40;99.90;;;;;;5073232;28;20446;-81
2023/05/16 07:57:21;;;;;;;4.60;3.17;;;12.60;99.90;;;;;;5073296;28;21010;-80
2023/05/16 07:59:48;;;;;;;6.97;2.83;;;12.60;99.90;;;;;;5073242;28;20849;-81
2023/05/16 08:02:15;;;;;;;7.00;4.03;;;12.50;99.90;;;;;;5073354;28;20484;-81
2023/05/16 08:04:42;;;;;;;7.83;3.90;;;12.50;99.90;;;;;;5073419;28;20527;-81
2023/05/16 08:07:09;;;;;;;3.53;2.90;;;12.50;99.90;;;;;;5073068;28;21030;-81
2023/05/16 08:09:36;;;;;;;8.70;3.60;;;12.40;99.90;;;;;;5073436;28;20481;-81
2023/05/16 08:12:03;;;;;;;6.17;3.83;;;12.40;99.90;;;;;;5073174;28;20444;-81
2023/05/16 08:14:32;;;;;;;5.33;2.63;;;12.40;99.90;;;;;;5073289;28;20473;-81
2023/05/16 08:16:59;;;;;;;7.50;3.43;;;12.50;99.90;;;;;;5073168;28;20445;-81
2023/05/16 08:19:25;;;;;;;8.10;4.23;;;12.50;99.90;;;;;;5073027;28;20929;-82
2023/05/16 08:21:52;;;;;;;9.23;4.30;;;12.50;99.90;;;;;;5073293;28;20453;-81
2023/05/16 08:24:20;;;;;;;7.23;2.93;;;12.60;99.90;;;;;;5073202;28;20470;-81
2023/05/16 08:26:47;;;;;;;8.00;4.60;;;12.60;99.90;;;;;;5073158;28;20485;-81
2023/05/16 08:29:13;;;;;;;7.20;3.93;;;12.60;99.90;;;;;;5073279;28;20457;-81
2023/05/16 08:31:41;;;;;;;8.43;3.57;;;12.50;99.90;;;;;;5073214;28;20441;-81
2023/05/16 08:34:09;;;;;;;5.93;3.10;;;12.50;99.90;;;;;;5073151;28;20465;-80
2023/05/16 08:36:36;;;;;;;5.43;2.50;;;12.50;99.90;;;;;;5072828;28;21043;-81
2023/05/16 08:39:03;;;;;;;8.10;3.87;;;12.50;99.90;;;;;;5073137;28;20449;-81
2023/05/16 08:41:30;;;;;;;10.30;3.00;;;12.50;99.90;;;;;;5073073;28;20511;-79
2023/05/16 08:43:57;;;;;;;5.50;3.30;;;12.40;99.90;;;;;;5073083;28;20465;-78
2023/05/16 08:46:24;;;;;;;10.47;4.50;;;12.40;99.90;;;;;;5072972;28;20893;-79
2023/05/16 08:48:53;;;;;;;7.70;3.10;;;12.30;99.90;;;;;;5072954;28;20557;-79
2023/05/16 08:51:21;;;;;;;5.83;3.47;;;12.20;99.90;;;;;;5073043;28;20456;-80
2023/05/16 08:53:53;;;;;;;5.93;3.03;;;12.20;99.90;;;;;;5072960;28;20470;-78
2023/05/16 08:56:22;;;;;;;4.73;3.00;;;12.10;99.90;;;;;;5073000;28;20624;-78
2023/05/16 08:58:50;;;;;;;13.47;4.03;;;12.10;99.90;;;;;;5072979;28;20460;-79
2023/05/16 09:01:19;;;;;;;14.60;5.63;;;12.10;99.90;;;;;;5072578;28;20454;-78
2023/05/16 09:03:46;;;;;;;9.10;3.90;;;12.10;99.90;;;;;;5072197;28;20870;-79
2023/05/16 09:06:15;;;;;;;8.33;4.73;;;12.20;99.90;;;;;;5072744;28;20464;-78
2023/05/16 09:08:42;;;;;;;8.17;3.47;;;12.30;99.90;;;;;;5072830;28;20461;-79
2023/05/16 09:11:09;;;;;;;7.63;3.33;;;12.30;99.90;;;;;;5073143;28;20453;-78
2023/05/16 09:13:37;;;;;;;9.80;3.80;;;12.30;99.90;;;;;;5072671;28;20468;-79
2023/05/16 09:16:12;;;;;;;8.77;4.27;;;12.30;99.90;;;;;;5072483;28;20938;-79
2023/05/16 09:18:40;;;;;;;5.87;3.60;;;12.30;99.90;;;;;;5072424;28;20469;-78
2023/05/16 09:21:07;;;;;;;12.37;5.10;;;12.30;99.90;;;;;;5072297;28;20912;-79
2023/05/16 09:23:35;;;;;;;8.03;4.03;;;12.40;99.90;;;;;;5073672;28;20516;-79
2023/05/16 09:26:03;;;;;;;9.00;3.97;;;12.40;99.90;;;;;;5075869;28;20963;-79
2023/05/16 09:28:31;;;;;;;10.40;4.27;;;12.40;99.90;;;;;;5075691;28;21082;-79
2023/05/16 09:30:59;;;;;;;8.20;4.30;;;12.40;99.90;;;;;;5075982;28;20454;-79
2023/05/16 09:33:28;;;;;;;12.47;4.23;;;12.40;99.90;;;;;;5075373;28;20457;-78
2023/05/16 09:35:59;;;;;;;10.37;5.17;;;12.50;99.90;;;;;;5075053;28;20438;-76
2023/05/16 09:38:27;;;;;;;10.27;4.23;;;12.50;99.90;;;;;;5075745;28;20825;-77
2023/05/16 09:40:55;;;;;;;10.60;3.93;;;12.60;99.90;;;;;;5076039;28;20481;-80
2023/05/16 09:43:24;;;;;;;5.27;3.23;;;12.70;99.90;;;;;;5075604;28;21007;-78
2023/05/16 09:45:52;;;;;;;8.47;4.50;;;12.80;99.90;;;;;;5075973;28;20453;-78
2023/05/16 09:48:20;;;;;;;7.17;3.03;;;12.90;99.90;;;;;;5075845;28;20938;-79
2023/05/16 09:50:50;;;;;;;9.00;3.97;;;12.90;99.90;;;;;;5075893;28;20430;-78
2023/05/16 09:53:16;;;;;;;5.50;3.40;;;12.90;99.90;;;;;;5075753;28;20595;-78
2023/05/16 09:55:43;;;;;;;8.57;4.60;;;12.90;99.90;;;;;;5075766;28;20460;-78
2023/05/16 09:58:11;;;;;;;10.37;2.83;;;12.90;99.90;;;;;;5075716;28;20499;-79
2023/05/16 10:00:39;;;;;;;8.03;4.40;;;13.00;99.90;;;;;;5075702;28;20458;-78
2023/05/16 10:03:07;;;;;;;9.73;4.83;;;13.10;99.90;;;;;;5075293;28;20501;-78
2023/05/16 10:05:35;;;;;;;16.30;4.10;;;13.30;99.90;;;;;;5075345;28;20437;-78
2023/05/16 10:08:03;;;;;;;14.07;4.97;;;13.40;99.90;;;;;;5075173;28;20985;-78
2023/05/16 10:10:31;;;;;;;6.10;3.70;;;13.60;99.90;;;;;;5075185;28;20453;-78
2023/05/16 10:13:00;;;;;;;7.60;4.30;;;13.70;99.90;;;;;;5075123;28;20457;-78
2023/05/16 10:15:29;;;;;;;9.17;4.23;;;13.70;99.90;;;;;;5075412;28;20446;-78
2023/05/16 10:17:58;;;;;;;11.03;3.80;;;13.60;99.90;;;;;;5076215;28;20873;-78
2023/05/16 10:20:26;;;;;;;8.90;4.50;;;13.60;99.90;;;;;;5075302;28;20476;-78
2023/05/16 10:22:55;;;;;;;6.30;3.50;;;13.50;99.90;;;;;;5074977;28;20520;-78
2023/05/16 10:25:29;;;;;;;6.57;3.70;;;13.60;99.90;;;;;;5074874;28;20968;-78
2023/05/16 10:27:57;;;;;;;8.30;3.90;;;13.70;99.90;;;;;;5075140;28;20469;-78
2023/05/16 10:30:23;;;;;;;12.40;3.97;;;13.80;99.90;;;;;;5075118;28;20449;-78
2023/05/16 10:32:52;;;;;;;8.73;3.40;;;13.80;99.90;;;;;;5074976;28;20837;-81
2023/05/16 10:35:20;;;;;;;9.77;3.57;;;13.70;99.90;;;;;;5074687;28;20445;-81
2023/05/16 10:37:48;;;;;;;6.47;2.93;;;13.60;99.90;;;;;;5074998;28;20468;-82
2023/05/16 10:40:15;;;;;;;6.27;2.90;;;13.50;99.90;;;;;;5074926;28;20445;-82
2023/05/16 10:42:54;;;;;;;8.50;3.27;;;13.40;99.90;;;;;;5074469;28;20941;-81
2023/05/16 10:45:21;;;;;;;3.77;2.60;;;13.30;99.90;;;;;;5074864;28;20440;-82
2023/05/16 10:47:54;;;;;;;6.80;3.63;;;13.20;99.90;;;;;;5074737;28;20465;-81
2023/05/16 10:50:35;;;;;;;12.63;4.73;;;13.10;99.90;;;;;;5074692;28;20457;-80
2023/05/16 10:53:16;;;;;;;6.40;2.90;;;12.90;99.90;;;;;;5074308;28;20477;-79
2023/05/16 10:55:49;;;;;;;8.77;3.17;;;12.80;99.90;;;;;;5074639;28;20449;-81
2023/05/16 10:58:22;;;;;;;6.10;3.20;;;12.90;99.90;;;;;;5074267;28;20989;-80
2023/05/16 11:00:49;;;;;;;6.23;2.77;;;13.00;99.90;;;;;;5074572;28;20437;-79
2023/05/16 11:03:27;;;;;;;8.60;3.03;;;13.00;99.90;;;;;;5073927;28;20894;-80
2023/05/16 11:05:59;;;;;;;3.83;2.87;;;13.00;99.90;;;;;;5074382;28;20516;-81
2023/05/16 11:08:27;;;;;;;5.40;2.57;;;13.00;99.90;;;;;;5074274;28;20548;-80
2023/05/16 11:11:27;;;;;;;6.67;3.53;;;13.10;99.90;;;;;;5074293;28;20449;-80
2023/05/16 11:13:56;;;;;;;6.50;2.30;;;13.10;99.90;;;;;;5074189;28;20569;-80
2023/05/16 11:16:27;;;;;;;4.03;2.80;;;13.10;99.90;;;;;;5074415;28;20445;-80
2023/05/16 11:19:03;;;;;;;1.87;1.70;;;13.10;99.90;;;;;;5073893;28;20928;-80
2023/05/16 11:22:00;;;;;;;5.00;1.70;;;13.10;99.90;;;;;;5074122;28;20425;-81
2023/05/16 11:24:30;;;;;;;5.03;1.53;;;13.10;99.90;;;;;;5065035;28;20469;-81
2023/05/16 11:26:58;;;;;;;6.00;2.13;;;13.10;99.90;;;;;;5073565;28;20817;-80
2023/05/16 11:29:26;;;;;;;2.30;1.43;;;13.00;99.90;;;;;;5073681;28;20827;-81
2023/05/16 11:31:53;;;;;;;2.23;1.50;;;13.00;99.90;;;;;;5073596;28;20828;-79
2023/05/16 11:34:21;;;;;;;2.80;1.83;;;13.00;99.90;;;;;;5073847;28;20466;-80
2023/05/16 11:36:48;;;;;;;2.10;1.00;;;12.90;99.90;;;;;;5073842;28;20464;-80
2023/05/16 11:39:15;;;;;;;4.23;2.70;;;12.90;99.90;;;;;;5073860;28;20538;-80
2023/05/16 11:41:42;;;;;;;2.97;1.33;;;12.80;99.90;;;;;;5073732;28;20835;-81
2023/05/16 11:44:11;;;;;;;5.00;2.40;;;12.60;99.90;;;;;;5073637;28;20477;-81
2023/05/16 11:46:39;;;;;;;4.27;3.03;;;12.60;99.90;;;;;;5073030;28;20452;-80
2023/05/16 11:49:08;;;;;;;4.97;2.00;;;12.60;99.90;;;;;;5073291;28;21053;-82
2023/05/16 11:51:38;;;;;;;4.27;2.20;;;12.50;99.90;;;;;;5073559;28;20438;-81
2023/05/16 11:54:05;;;;;;;4.33;3.00;;;12.50;99.90;;;;;;5073835;28;20477;-81
2023/05/16 11:56:32;;;;;;;4.70;2.50;;;12.50;99.90;;;;;;5073558;28;20449;-81
2023/05/16 11:59:00;;;;;;;2.27;1.43;;;12.40;99.90;;;;;;5073668;28;20426;-82
2023/05/16 12:01:33;;;;;;;4.30;2.50;;;12.50;99.90;;;;;;5073184;28;20953;-81
2023/05/16 12:03:59;;;;;;;2.30;1.50;;;12.50;99.90;;;;;;5072738;28;20485;-81
2023/05/16 12:06:29;;;;;;;3.27;1.40;;;12.40;99.90;;;;;;5073455;28;20448;-81
2023/05/16 12:08:58;;;;;;;2.63;1.43;;;12.40;99.90;;;;;;5073378;28;20899;-81
2023/05/16 12:11:25;;;;;;;4.60;1.73;;;12.40;99.90;;;;;;5073134;28;20457;-81
2023/05/16 12:13:52;;;;;;;2.30;0.87;;;12.40;99.90;;;;;;5072992;28;20890;-81
2023/05/16 12:16:20;;;;;;;1.53;1.27;;;12.40;99.90;;;;;;5073356;28;20455;-81
2023/05/16 12:18:47;;;;;;;3.33;1.67;;;12.40;99.90;;;;;;5073324;28;20453;-81
2023/05/16 12:21:14;;;;;;;2.30;1.83;;;12.40;99.90;;;;;;5073291;28;20449;-81
2023/05/16 12:23:42;;;;;;;1.83;1.10;;;12.40;99.90;;;;;;5072914;28;20984;-81
2023/05/16 12:26:10;;;;;;;2.40;1.40;;;12.50;99.90;;;;;;5072931;28;20491;-81
2023/05/16 12:28:38;;;;;;;4.30;2.03;;;12.60;99.90;;;;;;5073165;28;20492;-81
2023/05/16 12:31:11;;;;;;;4.40;2.00;;;12.60;99.90;;;;;;5073247;28;20524;-82
2023/05/16 12:33:38;;;;;;;3.07;1.63;;;12.60;99.90;;;;;;5072841;28;20477;-81
2023/05/16 12:36:05;;;;;;;4.00;1.67;;;12.60;99.90;;;;;;5073102;28;20473;-82
2023/05/16 12:38:32;;;;;;;2.83;1.90;;;12.50;99.90;;;;;;5073118;28;20448;-81
2023/05/16 12:40:59;;;;;;;10.83;1.50;;;12.40;99.90;;;;;;5073058;28;20449;-82
2023/05/16 12:43:27;;;;;;;2.20;0.90;;;12.40;99.90;;;;;;5073000;28;20462;-83
2023/05/16 12:45:56;;;;;;;3.90;1.13;;;12.40;99.90;;;;;;5073010;28;20500;-81